sensor_id;sensor_type;location;lat;lon;timestamp;pressure;altitude;pressure_sealevel;temperature;humidity
29385;BME280;16367;48.736;9.218;2023-02-16T00:00:05;-23307.31;;;4.39;85.18
29385;BME280;16367;48.736;9.218;2023-02-16T00:02:08;-23310.50;;;4.49;85.27
29385;BME280;16367;48.736;9.218;2023-02-16T00:04:16;-23312.75;;;4.56;85.11
29385;BME280;16367;48.736;9.218;2023-02-16T00:06:21;-23313.22;;;4.58;85.26
29385;BME280;16367;48.736;9.218;2023-02-16T00:08:24;-23311.31;;;4.51;85.13
29385;BME280;16367;48.736;9.218;2023-02-16T00:10:30;-23310.84;;;4.50;85.63
29385;BME280;16367;48.736;9.218;2023-02-16T00:12:34;-23307.00;;;4.38;86.23
29385;BME280;16367;48.736;9.218;2023-02-16T00:14:54;-23309.88;;;4.47;85.18
29385;BME280;16367;48.736;9.218;2023-02-16T00:16:58;-23306.06;;;4.35;85.68
29385;BME280;16367;48.736;9.218;2023-02-16T00:19:01;-23307.16;;;4.38;85.42
29385;BME280;16367;48.736;9.218;2023-02-16T00:21:04;-23305.75;;;4.34;85.20
29385;BME280;16367;48.736;9.218;2023-02-16T00:23:08;-23306.84;;;4.37;85.06
29385;BME280;16367;48.736;9.218;2023-02-16T00:25:10;-23310.34;;;4.48;83.95
29385;BME280;16367;48.736;9.218;2023-02-16T00:27:14;-23312.59;;;4.56;83.77
29385;BME280;16367;48.736;9.218;2023-02-16T00:29:23;-23310.84;;;4.50;83.42
29385;BME280;16367;48.736;9.218;2023-02-16T00:31:28;-23308.59;;;4.43;83.88
29385;BME280;16367;48.736;9.218;2023-02-16T00:33:33;-23307.16;;;4.38;84.55
29385;BME280;16367;48.736;9.218;2023-02-16T00:35:35;-23304.47;;;4.30;84.60
29385;BME280;16367;48.736;9.218;2023-02-16T00:37:38;-23303.19;;;4.26;85.36
29385;BME280;16367;48.736;9.218;2023-02-16T00:39:43;-23300.31;;;4.17;86.20
29385;BME280;16367;48.736;9.218;2023-02-16T00:41:46;-23300.00;;;4.16;86.27
29385;BME280;16367;48.736;9.218;2023-02-16T00:43:51;-23293.31;;;3.95;88.15
29385;BME280;16367;48.736;9.218;2023-02-16T00:45:56;-23294.09;;;3.97;87.78
29385;BME280;16367;48.736;9.218;2023-02-16T00:47:59;-23291.41;;;3.89;87.93
29385;BME280;16367;48.736;9.218;2023-02-16T00:50:03;-23288.53;;;3.79;88.95
29385;BME280;16367;48.736;9.218;2023-02-16T00:52:23;-23285.97;;;3.71;89.29
29385;BME280;16367;48.736;9.218;2023-02-16T00:54:29;-23282.47;;;3.60;90.96
29385;BME280;16367;48.736;9.218;2023-02-16T00:56:34;-23278.81;;;3.49;91.98
29385;BME280;16367;48.736;9.218;2023-02-16T00:58:36;-23281.19;;;3.56;92.52
29385;BME280;16367;48.736;9.218;2023-02-16T01:00:41;-23280.25;;;3.53;92.00
29385;BME280;16367;48.736;9.218;2023-02-16T01:02:46;-23271.97;;;3.27;94.04
29385;BME280;16367;48.736;9.218;2023-02-16T01:04:50;-23264.63;;;3.04;95.12
29385;BME280;16367;48.736;9.218;2023-02-16T01:06:53;-23264.63;;;3.04;96.21
29385;BME280;16367;48.736;9.218;2023-02-16T01:09:15;-23263.66;;;3.01;96.88
29385;BME280;16367;48.736;9.218;2023-02-16T01:11:37;-23256.66;;;2.79;97.96
29385;BME280;16367;48.736;9.218;2023-02-16T01:13:43;-23259.22;;;2.87;98.67
29385;BME280;16367;48.736;9.218;2023-02-16T01:15:47;-23257.28;;;2.81;98.75
29385;BME280;16367;48.736;9.218;2023-02-16T01:17:50;-23259.22;;;2.87;98.54
29385;BME280;16367;48.736;9.218;2023-02-16T01:19:53;-23260.00;;;2.89;98.35
29385;BME280;16367;48.736;9.218;2023-02-16T01:21:56;-23260.47;;;2.91;98.30
29385;BME280;16367;48.736;9.218;2023-02-16T01:23:58;-23264.31;;;3.03;97.93
29385;BME280;16367;48.736;9.218;2023-02-16T01:26:01;-23264.00;;;3.02;98.08
29385;BME280;16367;48.736;9.218;2023-02-16T01:28:16;-23258.88;;;2.86;98.55
29385;BME280;16367;48.736;9.218;2023-02-16T01:30:20;-23258.56;;;2.85;97.72
29385;BME280;16367;48.736;9.218;2023-02-16T01:32:24;-23249.31;;;2.56;99.55
29385;BME280;16367;48.736;9.218;2023-02-16T01:34:26;-23247.41;;;2.50;100.00
29385;BME280;16367;48.736;9.218;2023-02-16T01:36:32;-23248.53;;;2.53;100.00
29385;BME280;16367;48.736;9.218;2023-02-16T01:38:35;-23248.84;;;2.54;100.00
29385;BME280;16367;48.736;9.218;2023-02-16T01:40:41;-23243.41;;;2.37;100.00
29385;BME280;16367;48.736;9.218;2023-02-16T01:42:49;-23247.25;;;2.49;100.00
29385;BME280;16367;48.736;9.218;2023-02-16T01:44:57;-23245.97;;;2.45;100.00
29385;BME280;16367;48.736;9.218;2023-02-16T01:47:04;-23245.19;;;2.43;100.00
29385;BME280;16367;48.736;9.218;2023-02-16T01:49:11;-23245.50;;;2.44;100.00
29385;BME280;16367;48.736;9.218;2023-02-16T01:51:19;-23244.38;;;2.40;100.00
29385;BME280;16367;48.736;9.218;2023-02-16T01:53:27;-23240.22;;;2.27;100.00
29385;BME280;16367;48.736;9.218;2023-02-16T01:55:35;-23251.72;;;2.63;100.00
29385;BME280;16367;48.736;9.218;2023-02-16T01:57:40;-23248.03;;;2.52;100.00
29385;BME280;16367;48.736;9.218;2023-02-16T02:00:03;-23248.38;;;2.53;100.00
29385;BME280;16367;48.736;9.218;2023-02-16T02:02:13;-23253.94;;;2.70;98.89
29385;BME280;16367;48.736;9.218;2023-02-16T02:04:26;-23257.13;;;2.80;98.19
29385;BME280;16367;48.736;9.218;2023-02-16T02:06:48;-23267.81;;;3.14;95.58
29385;BME280;16367;48.736;9.218;2023-02-16T02:08:57;-23265.25;;;3.06;94.58
29385;BME280;16367;48.736;9.218;2023-02-16T02:11:07;-23253.78;;;2.70;96.08
29385;BME280;16367;48.736;9.218;2023-02-16T02:13:18;-23256.66;;;2.79;97.03
29385;BME280;16367;48.736;9.218;2023-02-16T02:15:27;-23252.50;;;2.66;97.44
29385;BME280;16367;48.736;9.218;2023-02-16T02:17:31;-23255.53;;;2.75;97.60
29385;BME280;16367;48.736;9.218;2023-02-16T02:19:44;-23256.19;;;2.77;96.92
29385;BME280;16367;48.736;9.218;2023-02-16T02:22:03;-23261.13;;;2.93;96.65
29385;BME280;16367;48.736;9.218;2023-02-16T02:24:49;-23259.84;;;2.89;96.11
29385;BME280;16367;48.736;9.218;2023-02-16T02:27:08;-23261.59;;;2.94;95.31
29385;BME280;16367;48.736;9.218;2023-02-16T02:29:34;-23263.34;;;3.00;93.86
29385;BME280;16367;48.736;9.218;2023-02-16T02:31:48;-23264.16;;;3.03;93.85
29385;BME280;16367;48.736;9.218;2023-02-16T02:34:00;-23263.34;;;3.00;93.69
29385;BME280;16367;48.736;9.218;2023-02-16T02:36:13;-23261.75;;;2.95;93.24
29385;BME280;16367;48.736;9.218;2023-02-16T02:38:23;-23262.06;;;2.96;93.70
29385;BME280;16367;48.736;9.218;2023-02-16T02:40:36;-23263.03;;;2.99;93.18
29385;BME280;16367;48.736;9.218;2023-02-16T02:42:50;-23258.41;;;2.84;93.79
29385;BME280;16367;48.736;9.218;2023-02-16T02:45:01;-23262.41;;;2.97;92.89
29385;BME280;16367;48.736;9.218;2023-02-16T02:47:06;-23265.25;;;3.06;91.99
29385;BME280;16367;48.736;9.218;2023-02-16T02:49:09;-23266.53;;;3.10;91.39
29385;BME280;16367;48.736;9.218;2023-02-16T02:51:13;-23266.88;;;3.11;90.75
29385;BME280;16367;48.736;9.218;2023-02-16T02:53:41;-23266.06;;;3.09;90.80
29385;BME280;16367;48.736;9.218;2023-02-16T02:55:47;-23268.13;;;3.15;90.74
29385;BME280;16367;48.736;9.218;2023-02-16T02:58:10;-23260.31;;;2.90;91.67
29385;BME280;16367;48.736;9.218;2023-02-16T03:00:35;-23261.59;;;2.94;92.32
29385;BME280;16367;48.736;9.218;2023-02-16T03:02:50;-23264.94;;;3.05;91.36
29385;BME280;16367;48.736;9.218;2023-02-16T03:04:54;-23267.50;;;3.13;90.17
29385;BME280;16367;48.736;9.218;2023-02-16T03:07:00;-23266.38;;;3.10;90.33
29385;BME280;16367;48.736;9.218;2023-02-16T03:09:06;-23261.13;;;2.93;90.70
29385;BME280;16367;48.736;9.218;2023-02-16T03:11:14;-23261.59;;;2.94;91.31
29385;BME280;16367;48.736;9.218;2023-02-16T03:13:39;-23262.56;;;2.97;91.47
29385;BME280;16367;48.736;9.218;2023-02-16T03:15:43;-23262.41;;;2.97;91.28
29385;BME280;16367;48.736;9.218;2023-02-16T03:17:47;-23261.59;;;2.94;91.68
29385;BME280;16367;48.736;9.218;2023-02-16T03:20:11;-23258.25;;;2.84;92.15
29385;BME280;16367;48.736;9.218;2023-02-16T03:22:33;-23264.63;;;3.04;90.97
29385;BME280;16367;48.736;9.218;2023-02-16T03:24:53;-23264.16;;;3.03;91.25
29385;BME280;16367;48.736;9.218;2023-02-16T03:27:17;-23265.25;;;3.06;90.21
29385;BME280;16367;48.736;9.218;2023-02-16T03:29:42;-23263.50;;;3.00;90.63
29385;BME280;16367;48.736;9.218;2023-02-16T03:31:46;-23269.72;;;3.20;90.00
29385;BME280;16367;48.736;9.218;2023-02-16T03:33:50;-23271.00;;;3.24;89.52
29385;BME280;16367;48.736;9.218;2023-02-16T03:35:55;-23269.56;;;3.20;89.69
29385;BME280;16367;48.736;9.218;2023-02-16T03:37:59;-23268.94;;;3.18;89.82
29385;BME280;16367;48.736;9.218;2023-02-16T03:40:03;-23267.50;;;3.13;90.20
29385;BME280;16367;48.736;9.218;2023-02-16T03:42:25;-23271.00;;;3.24;89.63
29385;BME280;16367;48.736;9.218;2023-02-16T03:44:28;-23265.09;;;3.06;90.23
29385;BME280;16367;48.736;9.218;2023-02-16T03:46:32;-23266.88;;;3.11;90.28
29385;BME280;16367;48.736;9.218;2023-02-16T03:48:35;-23267.19;;;3.12;89.88
29385;BME280;16367;48.736;9.218;2023-02-16T03:50:38;-23264.31;;;3.03;90.86
29385;BME280;16367;48.736;9.218;2023-02-16T03:52:40;-23268.13;;;3.15;90.22
29385;BME280;16367;48.736;9.218;2023-02-16T03:54:43;-23268.28;;;3.16;89.67
29385;BME280;16367;48.736;9.218;2023-02-16T03:56:46;-23267.34;;;3.13;90.66
29385;BME280;16367;48.736;9.218;2023-02-16T03:58:48;-23263.50;;;3.00;90.88
29385;BME280;16367;48.736;9.218;2023-02-16T04:00:52;-23259.22;;;2.87;91.77
29385;BME280;16367;48.736;9.218;2023-02-16T04:02:56;-23261.13;;;2.93;91.76
29385;BME280;16367;48.736;9.218;2023-02-16T04:05:01;-23259.69;;;2.88;92.06
29385;BME280;16367;48.736;9.218;2023-02-16T04:07:04;-23264.00;;;3.02;92.00
29385;BME280;16367;48.736;9.218;2023-02-16T04:09:07;-23263.66;;;3.01;91.84
29385;BME280;16367;48.736;9.218;2023-02-16T04:11:09;-23261.91;;;2.95;92.25
29385;BME280;16367;48.736;9.218;2023-02-16T04:13:30;-23261.28;;;2.93;91.87
29385;BME280;16367;48.736;9.218;2023-02-16T04:15:33;-23262.72;;;2.98;92.17
29385;BME280;16367;48.736;9.218;2023-02-16T04:17:35;-23262.56;;;2.97;92.18
29385;BME280;16367;48.736;9.218;2023-02-16T04:19:40;-23261.91;;;2.95;92.26
29385;BME280;16367;48.736;9.218;2023-02-16T04:21:42;-23265.09;;;3.06;91.21
29385;BME280;16367;48.736;9.218;2023-02-16T04:23:45;-23260.66;;;2.91;91.67
29385;BME280;16367;48.736;9.218;2023-02-16T04:25:48;-23260.81;;;2.92;92.40
29385;BME280;16367;48.736;9.218;2023-02-16T04:27:51;-23262.22;;;2.96;92.26
29385;BME280;16367;48.736;9.218;2023-02-16T04:29:54;-23259.53;;;2.88;92.59
29385;BME280;16367;48.736;9.218;2023-02-16T04:31:56;-23259.69;;;2.88;92.62
29385;BME280;16367;48.736;9.218;2023-02-16T04:33:59;-23257.63;;;2.82;93.56
29385;BME280;16367;48.736;9.218;2023-02-16T04:36:04;-23257.63;;;2.82;93.48
29385;BME280;16367;48.736;9.218;2023-02-16T04:38:07;-23259.84;;;2.89;93.29
29385;BME280;16367;48.736;9.218;2023-02-16T04:40:11;-23259.53;;;2.88;93.55
29385;BME280;16367;48.736;9.218;2023-02-16T04:42:14;-23256.81;;;2.79;93.72
29385;BME280;16367;48.736;9.218;2023-02-16T04:44:17;-23252.81;;;2.67;94.94
29385;BME280;16367;48.736;9.218;2023-02-16T04:46:19;-23250.91;;;2.61;95.26
29385;BME280;16367;48.736;9.218;2023-02-16T04:48:22;-23251.22;;;2.62;95.26
29385;BME280;16367;48.736;9.218;2023-02-16T04:50:25;-23250.44;;;2.59;95.57
29385;BME280;16367;48.736;9.218;2023-02-16T04:52:29;-23251.22;;;2.62;95.86
29385;BME280;16367;48.736;9.218;2023-02-16T04:54:32;-23251.72;;;2.63;96.05
29385;BME280;16367;48.736;9.218;2023-02-16T04:56:35;-23250.75;;;2.60;95.37
29385;BME280;16367;48.736;9.218;2023-02-16T04:58:38;-23247.41;;;2.50;95.82
29385;BME280;16367;48.736;9.218;2023-02-16T05:00:40;-23246.59;;;2.47;96.38
29385;BME280;16367;48.736;9.218;2023-02-16T05:02:43;-23245.81;;;2.45;96.64
29385;BME280;16367;48.736;9.218;2023-02-16T05:04:46;-23246.28;;;2.46;97.00
29385;BME280;16367;48.736;9.218;2023-02-16T05:06:49;-23241.03;;;2.30;97.68
29385;BME280;16367;48.736;9.218;2023-02-16T05:08:53;-23237.84;;;2.19;98.46
29385;BME280;16367;48.736;9.218;2023-02-16T05:10:55;-23230.81;;;1.97;99.89
29385;BME280;16367;48.736;9.218;2023-02-16T05:13:16;-23238.16;;;2.20;99.70
29385;BME280;16367;48.736;9.218;2023-02-16T05:15:36;-23242.31;;;2.34;98.98
29385;BME280;16367;48.736;9.218;2023-02-16T05:17:39;-23238.31;;;2.21;99.81
29385;BME280;16367;48.736;9.218;2023-02-16T05:19:44;-23240.88;;;2.29;99.95
29385;BME280;16367;48.736;9.218;2023-02-16T05:21:47;-23239.91;;;2.26;99.17
29385;BME280;16367;48.736;9.218;2023-02-16T05:23:49;-23236.72;;;2.16;99.99
29385;BME280;16367;48.736;9.218;2023-02-16T05:25:53;-23235.44;;;2.12;100.00
29385;BME280;16367;48.736;9.218;2023-02-16T05:27:55;-23234.47;;;2.09;100.00
29385;BME280;16367;48.736;9.218;2023-02-16T05:29:58;-23236.25;;;2.14;100.00
29385;BME280;16367;48.736;9.218;2023-02-16T05:32:01;-23234.66;;;2.09;100.00
29385;BME280;16367;48.736;9.218;2023-02-16T05:34:05;-23235.91;;;2.13;100.00
29385;BME280;16367;48.736;9.218;2023-02-16T05:36:08;-23238.31;;;2.21;100.00
29385;BME280;16367;48.736;9.218;2023-02-16T05:38:11;-23237.50;;;2.18;100.00
29385;BME280;16367;48.736;9.218;2023-02-16T05:40:13;-23237.19;;;2.17;100.00
29385;BME280;16367;48.736;9.218;2023-02-16T05:42:17;-23235.91;;;2.13;100.00
29385;BME280;16367;48.736;9.218;2023-02-16T05:44:20;-23237.19;;;2.17;100.00
29385;BME280;16367;48.736;9.218;2023-02-16T05:46:24;-23238.47;;;2.21;100.00
29385;BME280;16367;48.736;9.218;2023-02-16T05:48:27;-23239.75;;;2.25;100.00
29385;BME280;16367;48.736;9.218;2023-02-16T05:50:30;-23239.44;;;2.24;100.00
29385;BME280;16367;48.736;9.218;2023-02-16T05:52:32;-23239.13;;;2.23;100.00
29385;BME280;16367;48.736;9.218;2023-02-16T05:54:35;-23243.91;;;2.39;99.62
29385;BME280;16367;48.736;9.218;2023-02-16T05:56:38;-23243.91;;;2.39;99.75
29385;BME280;16367;48.736;9.218;2023-02-16T05:58:42;-23241.19;;;2.30;99.47
29385;BME280;16367;48.736;9.218;2023-02-16T06:00:44;-23240.72;;;2.28;99.89
29385;BME280;16367;48.736;9.218;2023-02-16T06:02:47;-23239.28;;;2.24;100.00
29385;BME280;16367;48.736;9.218;2023-02-16T06:04:50;-23238.47;;;2.21;100.00
29385;BME280;16367;48.736;9.218;2023-02-16T06:06:53;-23238.16;;;2.20;100.00
29385;BME280;16367;48.736;9.218;2023-02-16T06:08:55;-23238.78;;;2.22;100.00
29385;BME280;16367;48.736;9.218;2023-02-16T06:10:58;-23238.94;;;2.23;100.00
29385;BME280;16367;48.736;9.218;2023-02-16T06:13:01;-23231.28;;;1.99;100.00
29385;BME280;16367;48.736;9.218;2023-02-16T06:15:05;-23226.50;;;1.84;100.00
29385;BME280;16367;48.736;9.218;2023-02-16T06:17:08;-23235.75;;;2.13;100.00
29385;BME280;16367;48.736;9.218;2023-02-16T06:19:12;-23240.22;;;2.27;100.00
29385;BME280;16367;48.736;9.218;2023-02-16T06:21:14;-23244.53;;;2.41;100.00
29385;BME280;16367;48.736;9.218;2023-02-16T06:23:17;-23238.47;;;2.21;100.00
29385;BME280;16367;48.736;9.218;2023-02-16T06:25:20;-23233.69;;;2.06;100.00
29385;BME280;16367;48.736;9.218;2023-02-16T06:27:22;-23235.44;;;2.12;100.00
29385;BME280;16367;48.736;9.218;2023-02-16T06:29:25;-23227.94;;;1.88;100.00
29385;BME280;16367;48.736;9.218;2023-02-16T06:31:29;-23224.75;;;1.78;100.00
29385;BME280;16367;48.736;9.218;2023-02-16T06:33:36;-23230.50;;;1.96;100.00
29385;BME280;16367;48.736;9.218;2023-02-16T06:35:38;-23229.69;;;1.94;100.00
29385;BME280;16367;48.736;9.218;2023-02-16T06:37:41;-23236.25;;;2.14;100.00
29385;BME280;16367;48.736;9.218;2023-02-16T06:39:43;-23234.81;;;2.10;100.00
29385;BME280;16367;48.736;9.218;2023-02-16T06:41:46;-23241.97;;;2.33;100.00
29385;BME280;16367;48.736;9.218;2023-02-16T06:43:49;-23248.38;;;2.53;100.00
29385;BME280;16367;48.736;9.218;2023-02-16T06:45:51;-23247.88;;;2.51;99.99
29385;BME280;16367;48.736;9.218;2023-02-16T06:47:55;-23244.06;;;2.39;100.00
29385;BME280;16367;48.736;9.218;2023-02-16T06:49:58;-23244.06;;;2.39;100.00
29385;BME280;16367;48.736;9.218;2023-02-16T06:52:01;-23242.47;;;2.34;100.00
29385;BME280;16367;48.736;9.218;2023-02-16T06:54:04;-23243.09;;;2.36;99.82
29385;BME280;16367;48.736;9.218;2023-02-16T06:56:07;-23245.19;;;2.43;100.00
29385;BME280;16367;48.736;9.218;2023-02-16T06:58:10;-23245.19;;;2.43;100.00
29385;BME280;16367;48.736;9.218;2023-02-16T07:00:14;-23242.94;;;2.36;100.00
29385;BME280;16367;48.736;9.218;2023-02-16T07:02:17;-23239.44;;;2.24;100.00
29385;BME280;16367;48.736;9.218;2023-02-16T07:04:21;-23231.47;;;1.99;100.00
29385;BME280;16367;48.736;9.218;2023-02-16T07:06:25;-23234.66;;;2.09;100.00
29385;BME280;16367;48.736;9.218;2023-02-16T07:08:28;-23235.28;;;2.11;100.00
29385;BME280;16367;48.736;9.218;2023-02-16T07:10:31;-23235.13;;;2.11;100.00
29385;BME280;16367;48.736;9.218;2023-02-16T07:12:49;-23238.78;;;2.22;100.00
29385;BME280;16367;48.736;9.218;2023-02-16T07:14:52;-23232.09;;;2.01;100.00
29385;BME280;16367;48.736;9.218;2023-02-16T07:16:54;-23235.28;;;2.11;100.00
29385;BME280;16367;48.736;9.218;2023-02-16T07:19:03;-23240.06;;;2.26;100.00
29385;BME280;16367;48.736;9.218;2023-02-16T07:21:08;-23245.66;;;2.44;100.00
29385;BME280;16367;48.736;9.218;2023-02-16T07:23:11;-23251.56;;;2.63;100.00
29385;BME280;16367;48.736;9.218;2023-02-16T07:25:14;-23252.03;;;2.64;100.00
29385;BME280;16367;48.736;9.218;2023-02-16T07:27:16;-23259.84;;;2.89;99.02
29385;BME280;16367;48.736;9.218;2023-02-16T07:29:19;-23259.53;;;2.88;98.50
29385;BME280;16367;48.736;9.218;2023-02-16T07:31:22;-23262.06;;;2.96;98.38
29385;BME280;16367;48.736;9.218;2023-02-16T07:33:26;-23265.09;;;3.06;97.55
29385;BME280;16367;48.736;9.218;2023-02-16T07:35:29;-23272.44;;;3.29;96.67
29385;BME280;16367;48.736;9.218;2023-02-16T07:37:33;-23272.28;;;3.28;95.06
29385;BME280;16367;48.736;9.218;2023-02-16T07:39:36;-23273.41;;;3.32;94.98
29385;BME280;16367;48.736;9.218;2023-02-16T07:41:39;-23278.19;;;3.47;94.55
29385;BME280;16367;48.736;9.218;2023-02-16T07:43:41;-23277.22;;;3.44;94.19
29385;BME280;16367;48.736;9.218;2023-02-16T07:45:44;-23280.88;;;3.55;93.85
29385;BME280;16367;48.736;9.218;2023-02-16T07:47:47;-23282.63;;;3.61;93.25
29385;BME280;16367;48.736;9.218;2023-02-16T07:49:50;-23286.63;;;3.73;92.16
29385;BME280;16367;48.736;9.218;2023-02-16T07:51:52;-23285.34;;;3.69;91.38
29385;BME280;16367;48.736;9.218;2023-02-16T07:53:58;-23287.56;;;3.76;90.69
29385;BME280;16367;48.736;9.218;2023-02-16T07:56:01;-23290.44;;;3.86;90.29
29385;BME280;16367;48.736;9.218;2023-02-16T07:58:03;-23297.63;;;4.08;89.25
29385;BME280;16367;48.736;9.218;2023-02-16T08:00:08;-23310.69;;;4.49;86.62
29385;BME280;16367;48.736;9.218;2023-02-16T08:02:14;-23319.09;;;4.76;84.42
29385;BME280;16367;48.736;9.218;2023-02-16T08:04:17;-23326.13;;;4.98;83.02
29385;BME280;16367;48.736;9.218;2023-02-16T08:06:20;-23324.03;;;4.92;82.66
29385;BME280;16367;48.736;9.218;2023-02-16T08:08:22;-23326.59;;;5.00;82.32
29385;BME280;16367;48.736;9.218;2023-02-16T08:10:27;-23324.22;;;4.92;82.73
29385;BME280;16367;48.736;9.218;2023-02-16T08:12:30;-23344.72;;;5.57;80.80
29385;BME280;16367;48.736;9.218;2023-02-16T08:14:33;-23341.41;;;5.47;78.42
29385;BME280;16367;48.736;9.218;2023-02-16T08:16:36;-23327.22;;;5.02;79.85
29385;BME280;16367;48.736;9.218;2023-02-16T08:18:39;-23354.13;;;5.87;79.48
29385;BME280;16367;48.736;9.218;2023-02-16T08:20:42;-23344.59;;;5.57;77.94
29385;BME280;16367;48.736;9.218;2023-02-16T08:23:04;-23347.75;;;5.67;77.92
29385;BME280;16367;48.736;9.218;2023-02-16T08:25:08;-23358.91;;;6.02;77.43
29385;BME280;16367;48.736;9.218;2023-02-16T08:27:13;-23352.84;;;5.83;76.90
29385;BME280;16367;48.736;9.218;2023-02-16T08:29:16;-23372.25;;;6.44;74.79
29385;BME280;16367;48.736;9.218;2023-02-16T08:31:21;-23379.56;;;6.67;72.99
29385;BME280;16367;48.736;9.218;2023-02-16T08:33:25;-23408.50;;;7.59;70.88
29385;BME280;16367;48.736;9.218;2023-02-16T08:35:27;-23408.16;;;7.58;69.05
29385;BME280;16367;48.736;9.218;2023-02-16T08:37:32;-23405.00;;;7.48;69.19
29385;BME280;16367;48.736;9.218;2023-02-16T08:39:35;-23409.28;;;7.62;68.46
29385;BME280;16367;48.736;9.218;2023-02-16T08:41:38;-23426.44;;;8.16;66.91
29385;BME280;16367;48.736;9.218;2023-02-16T08:43:42;-23411.66;;;7.69;66.59
29385;BME280;16367;48.736;9.218;2023-02-16T08:45:45;-23413.88;;;7.76;67.94
29385;BME280;16367;48.736;9.218;2023-02-16T08:47:48;-23406.28;;;7.52;68.58
29385;BME280;16367;48.736;9.218;2023-02-16T08:49:53;-23400.53;;;7.34;69.07
29385;BME280;16367;48.736;9.218;2023-02-16T08:51:57;-23399.13;;;7.29;71.18
29385;BME280;16367;48.736;9.218;2023-02-16T08:54:03;-23406.28;;;7.52;69.40
29385;BME280;16367;48.736;9.218;2023-02-16T08:56:07;-23398.31;;;7.27;69.66
29385;BME280;16367;48.736;9.218;2023-02-16T08:58:11;-23415.00;;;7.80;69.35
29385;BME280;16367;48.736;9.218;2023-02-16T09:00:18;-23407.53;;;7.56;68.61
29385;BME280;16367;48.736;9.218;2023-02-16T09:02:35;-23428.97;;;8.24;66.44
29385;BME280;16367;48.736;9.218;2023-02-16T09:04:38;-23467.84;;;9.47;62.71
29385;BME280;16367;48.736;9.218;2023-02-16T09:06:43;-23477.84;;;9.79;61.60
29385;BME280;16367;48.736;9.218;2023-02-16T09:08:49;-23462.78;;;9.31;62.60
29385;BME280;16367;48.736;9.218;2023-02-16T09:10:53;-23470.69;;;9.56;62.81
29385;BME280;16367;48.736;9.218;2023-02-16T09:12:55;-23490.03;;;10.18;61.87
29385;BME280;16367;48.736;9.218;2023-02-16T09:14:58;-23463.09;;;9.32;61.90
29385;BME280;16367;48.736;9.218;2023-02-16T09:17:03;-23450.09;;;8.91;63.82
29385;BME280;16367;48.736;9.218;2023-02-16T09:19:06;-23474.50;;;9.68;60.94
29385;BME280;16367;48.736;9.218;2023-02-16T09:21:10;-23494.31;;;10.31;59.10
29385;BME280;16367;48.736;9.218;2023-02-16T09:23:15;-23502.41;;;10.57;58.50
29385;BME280;16367;48.736;9.218;2023-02-16T09:25:17;-23486.72;;;10.07;59.84
29385;BME280;16367;48.736;9.218;2023-02-16T09:27:20;-23497.34;;;10.41;59.55
29385;BME280;16367;48.736;9.218;2023-02-16T09:29:23;-23527.13;;;11.36;56.52
29385;BME280;16367;48.736;9.218;2023-02-16T09:31:27;-23490.38;;;10.19;59.11
29385;BME280;16367;48.736;9.218;2023-02-16T09:33:33;-23507.31;;;10.73;57.27
29385;BME280;16367;48.736;9.218;2023-02-16T09:35:37;-23518.88;;;11.09;57.26
29385;BME280;16367;48.736;9.218;2023-02-16T09:37:40;-23532.19;;;11.52;56.29
29385;BME280;16367;48.736;9.218;2023-02-16T09:39:43;-23532.03;;;11.51;56.27
29385;BME280;16367;48.736;9.218;2023-02-16T09:41:56;-23529.34;;;11.43;56.19
29385;BME280;16367;48.736;9.218;2023-02-16T09:44:08;-23523.63;;;11.24;55.78
29385;BME280;16367;48.736;9.218;2023-02-16T09:46:17;-23564.28;;;12.54;54.31
29385;BME280;16367;48.736;9.218;2023-02-16T09:48:29;-23575.38;;;12.89;52.63
29385;BME280;16367;48.736;9.218;2023-02-16T09:50:37;-23581.84;;;13.10;52.38
29385;BME280;16367;48.736;9.218;2023-02-16T09:52:57;-23538.19;;;11.71;53.42
29385;BME280;16367;48.736;9.218;2023-02-16T09:55:05;-23531.38;;;11.49;54.65
29385;BME280;16367;48.736;9.218;2023-02-16T09:57:15;-23516.34;;;11.01;56.54
29385;BME280;16367;48.736;9.218;2023-02-16T09:59:32;-23534.56;;;11.59;55.04
29385;BME280;16367;48.736;9.218;2023-02-16T10:01:40;-23558.91;;;12.37;52.99
29385;BME280;16367;48.736;9.218;2023-02-16T10:03:53;-23567.94;;;12.65;52.21
29385;BME280;16367;48.736;9.218;2023-02-16T10:06:08;-23541.19;;;11.80;53.79
29385;BME280;16367;48.736;9.218;2023-02-16T10:08:24;-23526.47;;;11.34;53.87
29385;BME280;16367;48.736;9.218;2023-02-16T10:10:34;-23536.59;;;11.66;53.75
29385;BME280;16367;48.736;9.218;2023-02-16T10:12:45;-23533.13;;;11.55;54.03
29385;BME280;16367;48.736;9.218;2023-02-16T10:14:53;-23527.13;;;11.36;53.03
29385;BME280;16367;48.736;9.218;2023-02-16T10:17:02;-23543.75;;;11.88;53.38
29385;BME280;16367;48.736;9.218;2023-02-16T10:19:16;-23558.28;;;12.35;53.09
29385;BME280;16367;48.736;9.218;2023-02-16T10:21:24;-23566.03;;;12.59;51.77
29385;BME280;16367;48.736;9.218;2023-02-16T10:23:42;-23557.81;;;12.33;50.56
29385;BME280;16367;48.736;9.218;2023-02-16T10:25:49;-23526.78;;;11.35;54.27
29385;BME280;16367;48.736;9.218;2023-02-16T10:28:04;-23570.78;;;12.74;52.15
29385;BME280;16367;48.736;9.218;2023-02-16T10:30:14;-23533.59;;;11.56;53.71
29385;BME280;16367;48.736;9.218;2023-02-16T10:32:24;-23536.78;;;11.66;53.40
29385;BME280;16367;48.736;9.218;2023-02-16T10:34:38;-23550.53;;;12.10;52.83
29385;BME280;16367;48.736;9.218;2023-02-16T10:37:03;-23526.94;;;11.35;54.85
29385;BME280;16367;48.736;9.218;2023-02-16T10:39:16;-23519.50;;;11.11;54.14
29385;BME280;16367;48.736;9.218;2023-02-16T10:41:28;-23523.00;;;11.22;54.07
29385;BME280;16367;48.736;9.218;2023-02-16T10:43:41;-23527.75;;;11.38;53.66
29385;BME280;16367;48.736;9.218;2023-02-16T10:45:48;-23543.25;;;11.87;53.21
29385;BME280;16367;48.736;9.218;2023-02-16T10:47:53;-23566.81;;;12.62;51.34
29385;BME280;16367;48.736;9.218;2023-02-16T10:49:56;-23547.69;;;12.01;52.02
29385;BME280;16367;48.736;9.218;2023-02-16T10:52:01;-23545.16;;;11.93;51.84
29385;BME280;16367;48.736;9.218;2023-02-16T10:54:06;-23539.47;;;11.75;51.95
29385;BME280;16367;48.736;9.218;2023-02-16T10:56:43;-23544.53;;;11.91;51.38
29385;BME280;16367;48.736;9.218;2023-02-16T10:58:49;-23536.94;;;11.67;50.84
29385;BME280;16367;48.736;9.218;2023-02-16T11:00:56;-23540.41;;;11.78;51.54
29385;BME280;16367;48.736;9.218;2023-02-16T11:03:01;-23540.72;;;11.79;51.95
29385;BME280;16367;48.736;9.218;2023-02-16T11:05:31;-23539.16;;;11.74;51.63
29385;BME280;16367;48.736;9.218;2023-02-16T11:07:51;-23544.84;;;11.92;51.17